createdAt,value
2022-10-30T00:04:44.494Z,14.13
2022-10-30T00:09:42.579Z,14.93
2022-10-30T00:14:40.534Z,13.10
2022-10-30T00:19:38.507Z,14.40
2022-10-30T00:24:37.800Z,14.77
2022-10-30T00:29:35.754Z,12.93
2022-10-30T00:34:33.632Z,13.77
2022-10-30T00:39:31.556Z,15.30
2022-10-30T00:44:42.033Z,14.23
2022-10-30T00:49:50.417Z,13.47
2022-10-30T00:54:53.306Z,13.37
2022-10-30T00:59:53.507Z,13.40
2022-10-30T01:04:53.479Z,12.73
2022-10-30T01:09:51.851Z,15.83
2022-10-30T01:14:55.526Z,15.37
2022-10-30T01:20:03.907Z,16.33
2022-10-30T01:25:15.735Z,15.27
2022-10-30T01:30:40.917Z,18.10
2022-10-30T01:35:45.203Z,16.30
2022-10-30T01:40:45.129Z,15.60
2022-10-30T01:46:11.059Z,17.63
2022-10-30T01:51:20.204Z,15.40
2022-10-30T01:56:27.494Z,16.47
2022-10-30T02:01:36.813Z,16.97
2022-10-30T02:06:41.040Z,17.57
2022-10-30T02:11:40.965Z,18.40
2022-10-30T02:16:48.328Z,16.10
2022-10-30T02:21:54.052Z,15.53
2022-10-30T02:26:51.961Z,16.70
2022-10-30T02:31:50.278Z,14.90
2022-10-30T02:36:52.055Z,17.47
2022-10-30T02:41:51.652Z,15.50
2022-10-30T02:46:49.645Z,14.90
2022-10-30T02:51:47.548Z,14.10
2022-10-30T02:56:46.789Z,12.17
2022-10-30T03:01:45.951Z,15.00
2022-10-30T03:06:43.928Z,17.53
2022-10-30T03:11:41.990Z,13.90
2022-10-30T03:16:44.765Z,14.80
2022-10-30T03:21:42.698Z,14.60
2022-10-30T03:26:43.881Z,15.17
2022-10-30T03:31:43.195Z,15.00
2022-10-30T03:36:50.565Z,13.10
2022-10-30T03:41:48.581Z,13.60
2022-10-30T03:46:47.920Z,13.50
2022-10-30T03:51:57.358Z,15.30
2022-10-30T03:56:57.333Z,14.70
2022-10-30T04:02:00.539Z,13.53
2022-10-30T04:07:00.863Z,14.37
2022-10-30T04:11:58.762Z,14.70
2022-10-30T04:16:56.746Z,13.10
2022-10-30T04:21:56.030Z,13.60
2022-10-30T04:26:53.951Z,12.33
2022-10-30T04:31:52.039Z,11.93
2022-10-30T04:36:50.796Z,14.37
2022-10-30T04:41:50.138Z,13.30
2022-10-30T04:46:55.029Z,13.77
2022-10-30T04:51:54.921Z,12.30
2022-10-30T04:56:54.941Z,14.43
2022-10-30T05:01:53.529Z,12.60
2022-10-30T05:06:54.621Z,12.90
2022-10-30T05:11:58.899Z,12.07
2022-10-30T05:16:58.512Z,13.60
2022-10-30T05:21:58.854Z,11.90
2022-10-30T05:26:58.155Z,13.13
2022-10-30T05:31:57.203Z,13.20
2022-10-30T05:37:16.814Z,14.37
2022-10-30T05:42:18.010Z,13.50
2022-10-30T05:47:19.209Z,12.13
2022-10-30T05:52:22.244Z,12.10
2022-10-30T05:57:23.519Z,12.67
2022-10-30T06:02:21.893Z,11.13
2022-10-30T06:07:19.835Z,9.73
2022-10-30T06:12:17.816Z,9.00
2022-10-30T06:17:37.292Z,8.53
2022-10-30T06:22:56.739Z,9.30
2022-10-30T06:28:02.824Z,9.57
2022-10-30T06:33:05.423Z,8.90
2022-10-30T06:38:05.570Z,9.00
2022-10-30T06:43:06.364Z,8.97
2022-10-30T06:48:10.406Z,9.87
2022-10-30T06:53:15.157Z,10.40
2022-10-30T06:58:13.511Z,10.23
2022-10-30T07:03:20.840Z,9.93
2022-10-30T07:08:18.825Z,9.83
2022-10-30T07:13:17.290Z,9.20
2022-10-30T07:18:22.249Z,10.10
2022-10-30T07:23:20.871Z,9.30
2022-10-30T07:28:22.348Z,10.30
2022-10-30T07:33:41.896Z,9.43
2022-10-30T07:38:58.172Z,9.37
2022-10-30T07:44:03.843Z,10.00
2022-10-30T07:49:28.734Z,9.70
2022-10-30T07:54:38.265Z,8.97
2022-10-30T08:00:06.743Z,9.10
2022-10-30T08:05:27.192Z,9.60
2022-10-30T08:10:50.742Z,10.37
2022-10-30T08:15:49.500Z,9.13
2022-10-30T08:20:51.417Z,9.50
2022-10-30T08:25:50.186Z,9.17
2022-10-30T08:30:48.826Z,8.80
2022-10-30T08:35:56.463Z,8.37
2022-10-30T08:40:54.451Z,10.03
2022-10-30T08:45:53.398Z,9.50
2022-10-30T08:50:58.641Z,8.90
2022-10-30T08:56:01.813Z,9.67
2022-10-30T09:01:12.151Z,7.83
2022-10-30T09:06:30.822Z,8.23
2022-10-30T09:11:49.870Z,8.80
2022-10-30T09:16:48.277Z,7.83
2022-10-30T09:21:50.223Z,7.47
2022-10-30T09:26:48.385Z,7.60
2022-10-30T09:31:56.760Z,7.80
2022-10-30T09:36:58.261Z,8.27
2022-10-30T09:42:17.866Z,7.20
2022-10-30T09:47:30.667Z,7.03
2022-10-30T09:52:35.938Z,7.87
2022-10-30T09:57:43.094Z,7.00
2022-10-30T10:02:57.218Z,6.20
2022-10-30T10:08:06.186Z,7.00
2022-10-30T10:13:33.832Z,6.47
2022-10-30T10:18:36.768Z,6.20
2022-10-30T10:23:46.882Z,5.97
2022-10-30T10:28:59.724Z,5.60
2022-10-30T10:34:10.179Z,5.00
2022-10-30T10:39:22.480Z,6.40
2022-10-30T10:44:36.419Z,4.77
2022-10-30T10:49:47.301Z,5.20
2022-10-30T10:54:50.178Z,5.70
2022-10-30T10:59:52.548Z,5.27
2022-10-30T11:04:56.195Z,5.60
2022-10-30T11:09:57.358Z,5.20
2022-10-30T11:14:55.384Z,5.37
2022-10-30T11:20:02.282Z,5.53
2022-10-30T11:25:20.623Z,4.87
2022-10-30T11:30:23.368Z,5.37
2022-10-30T11:35:22.614Z,5.47
2022-10-30T11:40:23.791Z,5.90
2022-10-30T11:45:31.947Z,5.20
2022-10-30T11:50:32.743Z,5.60
2022-10-30T11:55:39.381Z,4.73
2022-10-30T12:00:39.086Z,5.83
2022-10-30T12:05:39.267Z,5.50
2022-10-30T12:10:45.029Z,5.30
2022-10-30T12:15:44.031Z,5.63
2022-10-30T12:20:46.734Z,5.40
2022-10-30T12:25:50.357Z,6.17
2022-10-30T12:30:55.474Z,5.20
2022-10-30T12:35:59.190Z,5.70
2022-10-30T12:41:07.043Z,5.50
2022-10-30T12:46:22.858Z,5.40
2022-10-30T12:51:30.696Z,4.90
2022-10-30T12:56:34.846Z,5.60
2022-10-30T13:01:37.730Z,4.40
2022-10-30T13:06:42.369Z,4.57
2022-10-30T13:11:49.835Z,4.47
2022-10-30T13:16:47.845Z,5.70
2022-10-30T13:21:54.003Z,5.13
2022-10-30T13:26:59.476Z,5.03
2022-10-30T13:32:17.114Z,5.33
2022-10-30T13:37:20.860Z,5.20
2022-10-30T13:42:37.912Z,5.50
2022-10-30T13:47:46.862Z,5.30
2022-10-30T13:52:53.516Z,4.70
2022-10-30T13:58:01.337Z,4.70
2022-10-30T14:03:23.574Z,5.63
2022-10-30T14:13:51.559Z,4.93
2022-10-30T14:19:01.664Z,5.70
2022-10-30T14:24:12.078Z,4.77
2022-10-30T14:29:38.220Z,5.10
2022-10-30T14:34:44.061Z,4.87
2022-10-30T14:39:42.937Z,5.27
2022-10-30T14:45:02.552Z,4.87
2022-10-30T14:50:08.168Z,4.90
2022-10-30T14:55:29.206Z,5.07
2022-10-30T15:00:46.607Z,5.13
2022-10-30T15:05:53.216Z,5.83
2022-10-30T15:11:18.225Z,5.80
2022-10-30T15:16:20.560Z,6.63
2022-10-30T15:21:26.564Z,6.30
2022-10-30T15:26:27.401Z,6.80
2022-10-30T15:31:30.756Z,6.37
2022-10-30T15:36:30.686Z,7.43
2022-10-30T15:41:30.086Z,5.90
2022-10-30T15:46:29.401Z,6.13
2022-10-30T15:51:30.680Z,6.80
2022-10-30T15:56:33.662Z,7.10
2022-10-30T16:01:34.949Z,6.77
2022-10-30T16:06:33.407Z,5.63
2022-10-30T16:11:31.533Z,7.40
2022-10-30T16:16:33.606Z,8.10
2022-10-30T16:21:32.669Z,6.80
2022-10-30T16:26:35.580Z,8.30
2022-10-30T16:31:40.758Z,7.30
2022-10-30T16:36:40.281Z,7.70
2022-10-30T16:41:38.267Z,6.93
2022-10-30T16:46:42.116Z,8.20
2022-10-30T16:51:40.706Z,7.57
2022-10-30T16:56:38.720Z,8.37
2022-10-30T17:01:37.197Z,7.80
2022-10-30T17:06:41.843Z,8.40
2022-10-30T17:11:43.192Z,7.40
2022-10-30T17:16:41.501Z,8.73
2022-10-30T17:21:42.294Z,7.33
2022-10-30T17:26:40.285Z,7.60
2022-10-30T17:31:44.930Z,7.93
2022-10-30T17:36:45.063Z,7.90
2022-10-30T17:41:44.224Z,7.43
2022-10-30T17:46:42.259Z,9.30
2022-10-30T17:51:40.226Z,8.00
2022-10-30T17:56:42.850Z,9.23
2022-10-30T18:01:40.971Z,9.20
2022-10-30T18:06:38.950Z,9.20
2022-10-30T18:11:37.754Z,8.97
2022-10-30T18:16:37.091Z,9.30
2022-10-30T18:21:35.047Z,9.73
2022-10-30T18:26:39.342Z,10.67
2022-10-30T18:31:40.728Z,9.30
2022-10-30T18:36:38.740Z,11.07
2022-10-30T18:41:38.892Z,10.13
2022-10-30T18:46:36.871Z,10.30
2022-10-30T18:51:36.363Z,10.50
2022-10-30T18:56:34.360Z,10.90
2022-10-30T19:01:32.997Z,11.07
2022-10-30T19:06:32.819Z,11.87
2022-10-30T19:11:32.500Z,14.20
2022-10-30T19:16:30.550Z,12.60
2022-10-30T19:21:31.916Z,13.90
2022-10-30T19:26:35.446Z,13.83
2022-10-30T19:31:33.421Z,14.40
2022-10-30T19:36:33.723Z,14.10
2022-10-30T19:41:33.364Z,14.57
2022-10-30T19:46:31.271Z,12.77
2022-10-30T19:51:29.815Z,13.93
2022-10-30T19:56:27.902Z,14.43
2022-10-30T20:01:27.376Z,13.50
2022-10-30T20:06:25.548Z,14.20
2022-10-30T20:11:23.494Z,15.07
2022-10-30T20:16:21.588Z,14.33
2022-10-30T20:21:20.988Z,14.60
2022-10-30T20:26:24.968Z,14.60
2022-10-30T20:31:23.266Z,14.40
2022-10-30T20:36:22.659Z,14.43
2022-10-30T20:41:23.088Z,13.83
2022-10-30T20:46:21.733Z,13.80
2022-10-30T20:51:21.934Z,16.40
2022-10-30T20:56:21.178Z,16.87
2022-10-30T21:01:19.205Z,15.37
2022-10-30T21:06:17.353Z,15.67
2022-10-30T21:11:15.620Z,17.00
2022-10-30T21:16:15.354Z,16.03
2022-10-30T21:21:13.662Z,15.47
2022-10-30T21:26:12.068Z,15.40
2022-10-30T21:31:13.193Z,16.57
2022-10-30T21:36:14.629Z,15.60
2022-10-30T21:41:14.074Z,16.90
2022-10-30T21:46:13.454Z,16.97
2022-10-30T21:51:15.050Z,18.57
2022-10-30T21:56:14.801Z,17.90
2022-10-30T22:01:18.379Z,16.70
2022-10-30T22:06:21.961Z,18.00
2022-10-30T22:11:22.089Z,15.70
2022-10-30T22:16:20.093Z,17.33
2022-10-30T22:21:19.791Z,16.67
2022-10-30T22:26:22.075Z,16.03
2022-10-30T22:31:21.593Z,16.80
2022-10-30T22:36:22.662Z,16.30
2022-10-30T22:41:23.875Z,15.70
2022-10-30T22:46:22.934Z,15.70
2022-10-30T22:51:23.360Z,16.00
2022-10-30T22:56:24.520Z,17.17
2022-10-30T23:01:24.330Z,18.77
2022-10-30T23:06:24.290Z,17.27
2022-10-30T23:11:22.262Z,16.77
2022-10-30T23:16:22.629Z,18.37
2022-10-30T23:21:24.710Z,18.00
2022-10-30T23:26:25.088Z,18.37
2022-10-30T23:31:30.124Z,17.60
2022-10-30T23:36:29.676Z,16.83
2022-10-30T23:41:29.543Z,17.33
2022-10-30T23:46:28.178Z,16.43
2022-10-30T23:51:26.449Z,16.43
2022-10-30T23:56:25.844Z,17.97
